Time;durP1;ratioP1;P1;durP2;ratioP2;P2;SDS_P1;SDS_P2;PMS_P1;PMS_P2;Temp;Humidity;BMP_temperature;BMP_pressure;BME280_temperature;BME280_humidity;BME280_pressure;Samples;Min_cycle;Max_cycle;Signal;HPM_P1;HPM_P2
2022/10/08 00:00:45;;;;;;;12.02;3.83;;;;;;;;;;5082694;28;20039;-60
2022/10/08 00:03:11;;;;;;;7.03;3.50;;;;;;;;;;5087653;28;20070;-60
2022/10/08 00:05:37;;;;;;;7.55;3.38;;;;;;;;;;5084640;28;20051;-59
2022/10/08 00:08:02;;;;;;;6.00;3.03;;;;;;;;;;5078585;28;20040;-59
2022/10/08 00:10:28;;;;;;;10.65;3.30;;;;;;;;;;5081036;28;20089;-59
2022/10/08 00:12:53;;;;;;;7.70;3.53;;;;;;;;;;5080762;28;20052;-59
2022/10/08 00:15:19;;;;;;;9.43;3.33;;;;;;;;;;5083168;28;20040;-60
2022/10/08 00:17:44;;;;;;;7.95;3.33;;;;;;;;;;5080386;28;20066;-59
2022/10/08 00:20:09;;;;;;;8.40;3.15;;;;;;;;;;5079190;28;20117;-60
2022/10/08 00:22:35;;;;;;;9.68;3.58;;;;;;;;;;5082306;28;20046;-60
2022/10/08 00:25:00;;;;;;;5.53;3.28;;;;;;;;;;5085250;28;20048;-59
2022/10/08 00:27:25;;;;;;;10.43;3.72;;;;;;;;;;5086180;28;20037;-59
2022/10/08 00:29:51;;;;;;;8.85;3.95;;;;;;;;;;5084594;28;20041;-59
2022/10/08 00:32:20;;;;;;;7.70;3.45;;;;;;;;;;5079950;28;20048;-59
2022/10/08 00:34:46;;;;;;;9.02;3.55;;;;;;;;;;5087118;28;20070;-60
2022/10/08 00:37:14;;;;;;;8.63;3.63;;;;;;;;;;5086480;28;20097;-59
2022/10/08 00:39:40;;;;;;;16.58;3.60;;;;;;;;;;5088068;28;20020;-61
2022/10/08 00:42:06;;;;;;;6.18;3.08;;;;;;;;;;5086499;28;20044;-59
2022/10/08 00:45:01;;;;;;;8.93;3.45;;;;;;;;;;5085869;28;20040;-59
2022/10/08 00:47:32;;;;;;;12.73;3.58;;;;;;;;;;5078736;28;20056;-60
2022/10/08 00:50:09;;;;;;;6.30;3.17;;;;;;;;;;5080347;28;20138;-60
2022/10/08 00:52:39;;;;;;;9.75;3.25;;;;;;;;;;5076953;28;20087;-59
2022/10/08 00:55:06;;;;;;;8.32;3.45;;;;;;;;;;5081907;28;20045;-59
2022/10/08 00:57:33;;;;;;;7.43;2.90;;;;;;;;;;5082049;28;20451;-60
2022/10/08 01:00:03;;;;;;;8.63;3.35;;;;;;;;;;5083474;28;20058;-60
2022/10/08 01:02:29;;;;;;;9.68;3.10;;;;;;;;;;5086726;28;20483;-67
2022/10/08 01:04:54;;;;;;;10.48;2.95;;;;;;;;;;5077949;28;20044;-67
2022/10/08 01:07:43;;;;;;;6.18;3.03;;;;;;;;;;5078241;28;20048;-68
2022/10/08 01:10:19;;;;;;;6.53;2.88;;;;;;;;;;5070580;28;20044;-69
2022/10/08 01:13:24;;;;;;;9.35;3.13;;;;;;;;;;5081139;28;20478;-68
2022/10/08 01:16:09;;;;;;;11.45;3.28;;;;;;;;;;5080654;28;20087;-68
2022/10/08 01:18:40;;;;;;;7.10;3.10;;;;;;;;;;5084956;28;20040;-68
2022/10/08 01:21:22;;;;;;;12.25;3.30;;;;;;;;;;5086034;28;20059;-68
2022/10/08 01:23:53;;;;;;;7.13;3.00;;;;;;;;;;5084742;28;20058;-68
2022/10/08 01:26:36;;;;;;;4.72;2.75;;;;;;;;;;5082953;28;20060;-68
2022/10/08 01:29:07;;;;;;;;;;;;;;;;;;5082293;28;20094;-68
2022/10/08 01:31:39;;;;;;;13.73;3.17;;;;;;;;;;5083742;28;20374;-68
2022/10/08 01:34:26;;;;;;;5.68;3.03;;;;;;;;;;5081556;28;20044;-68
2022/10/08 01:36:55;;;;;;;9.27;3.15;;;;;;;;;;5082608;28;20131;-68
2022/10/08 01:39:26;;;;;;;7.88;3.10;;;;;;;;;;5082154;28;20542;-67
2022/10/08 01:41:57;;;;;;;12.15;3.28;;;;;;;;;;5082190;28;20052;-68
2022/10/08 01:44:27;;;;;;;9.25;3.42;;;;;;;;;;5085145;28;20124;-68
2022/10/08 01:46:57;;;;;;;9.27;3.60;;;;;;;;;;5082541;28;20513;-68
2022/10/08 01:49:27;;;;;;;12.98;3.40;;;;;;;;;;5084995;28;20040;-68
2022/10/08 01:52:03;;;;;;;9.25;3.22;;;;;;;;;;5085037;28;20044;-68
2022/10/08 01:54:29;;;;;;;10.50;3.55;;;;;;;;;;5083805;28;20059;-67
2022/10/08 01:56:57;;;;;;;7.80;3.47;;;;;;;;;;5082153;28;20032;-68
2022/10/08 01:59:32;;;;;;;9.07;3.15;;;;;;;;;;5083166;28;20136;-69
2022/10/08 02:01:57;;;;;;;6.70;3.53;;;;;;;;;;5079092;28;20067;-67
2022/10/08 02:04:32;;;;;;;8.40;3.65;;;;;;;;;;5081824;28;20072;-67
2022/10/08 02:07:09;;;;;;;9.23;3.50;;;;;;;;;;5080675;28;20086;-67
2022/10/08 02:09:38;;;;;;;7.20;3.42;;;;;;;;;;5077051;28;20032;-67
2022/10/08 02:12:04;;;;;;;6.72;3.22;;;;;;;;;;5080772;28;20118;-67
2022/10/08 02:14:31;;;;;;;8.02;3.47;;;;;;;;;;5080029;28;20116;-67
2022/10/08 02:17:21;;;;;;;7.65;3.38;;;;;;;;;;5079950;28;20178;-67
2022/10/08 02:19:55;;;;;;;10.52;3.80;;;;;;;;;;5074687;28;20059;-67
2022/10/08 02:22:25;;;;;;;10.85;3.58;;;;;;;;;;5083048;28;20048;-67
2022/10/08 02:24:56;;;;;;;10.32;3.70;;;;;;;;;;5077343;28;20127;-66
2022/10/08 02:27:29;;;;;;;12.98;4.47;;;;;;;;;;5083013;28;20041;-67
2022/10/08 02:30:09;;;;;;;8.10;3.40;;;;;;;;;;5083554;28;20138;-67
2022/10/08 02:32:47;;;;;;;6.13;3.10;;;;;;;;;;5081931;28;20064;-67
2022/10/08 02:35:18;;;;;;;11.00;4.30;;;;;;;;;;5082093;28;20054;-67
2022/10/08 02:37:52;;;;;;;12.07;3.55;;;;;;;;;;5081287;28;20399;-67
2022/10/08 02:40:19;;;;;;;10.45;3.15;;;;;;;;;;5081539;28;20089;-67
2022/10/08 02:42:51;;;;;;;9.25;3.58;;;;;;;;;;5081276;28;20094;-66
2022/10/08 02:45:25;;;;;;;8.68;4.05;;;;;;;;;;5080306;28;20117;-67
2022/10/08 02:47:55;;;;;;;13.57;4.05;;;;;;;;;;5081814;28;20403;-67
2022/10/08 02:50:23;;;;;;;7.28;3.65;;;;;;;;;;5082519;28;20040;-66
2022/10/08 02:52:50;;;;;;;8.93;3.58;;;;;;;;;;5081373;28;20472;-67
2022/10/08 02:55:38;;;;;;;7.15;3.35;;;;;;;;;;5077674;28;20070;-67
2022/10/08 02:58:07;;;;;;;8.18;3.08;;;;;;;;;;5079842;28;20056;-67
2022/10/08 03:00:38;;;;;;;9.85;3.30;;;;;;;;;;5080950;28;20666;-67
2022/10/08 03:03:17;;;;;;;9.43;3.70;;;;;;;;;;5084730;28;20540;-67
2022/10/08 03:05:43;;;;;;;16.95;3.38;;;;;;;;;;5079312;28;20447;-67
2022/10/08 03:08:13;;;;;;;6.95;3.20;;;;;;;;;;5077967;28;20391;-67
2022/10/08 03:10:40;;;;;;;9.52;3.33;;;;;;;;;;5080399;28;20502;-67
2022/10/08 03:13:07;;;;;;;6.53;3.13;;;;;;;;;;5081169;28;20532;-67
2022/10/08 03:15:34;;;;;;;8.60;3.78;;;;;;;;;;5080883;28;20123;-67
2022/10/08 03:18:04;;;;;;;9.20;3.42;;;;;;;;;;5081050;28;20028;-66
2022/10/08 03:20:30;;;;;;;10.73;3.03;;;;;;;;;;5076952;28;20044;-67
2022/10/08 03:23:00;;;;;;;9.23;3.78;;;;;;;;;;5080176;28;20094;-66
2022/10/08 03:25:26;;;;;;;7.70;3.35;;;;;;;;;;5084822;28;20048;-67
2022/10/08 03:27:51;;;;;;;6.30;3.08;;;;;;;;;;5085903;28;20668;-66
2022/10/08 03:30:16;;;;;;;8.52;3.15;;;;;;;;;;5086159;28;20028;-66
2022/10/08 03:32:42;;;;;;;7.22;3.22;;;;;;;;;;5083586;28;20052;-66
2022/10/08 03:35:07;;;;;;;10.38;3.45;;;;;;;;;;5083661;28;20143;-67
2022/10/08 03:37:33;;;;;;;5.43;3.00;;;;;;;;;;5087475;28;20040;-67
2022/10/08 03:39:58;;;;;;;6.43;3.30;;;;;;;;;;5086607;28;20071;-66
2022/10/08 03:42:23;;;;;;;7.88;3.20;;;;;;;;;;5081538;28;20024;-67
2022/10/08 03:44:49;;;;;;;7.97;3.50;;;;;;;;;;5088520;28;20093;-66
2022/10/08 03:47:14;;;;;;;21.88;3.85;;;;;;;;;;5080913;28;20113;-67
2022/10/08 03:49:40;;;;;;;5.68;3.20;;;;;;;;;;5083535;28;20048;-68
2022/10/08 03:52:05;;;;;;;4.85;2.88;;;;;;;;;;5081290;28;20056;-67
2022/10/08 03:54:33;;;;;;;4.82;2.83;;;;;;;;;;5085584;28;20036;-67
2022/10/08 03:56:58;;;;;;;8.05;3.10;;;;;;;;;;5085150;28;20711;-69
2022/10/08 03:59:24;;;;;;;10.48;3.10;;;;;;;;;;5082840;28;20060;-68
2022/10/08 04:01:49;;;;;;;9.13;3.30;;;;;;;;;;5081943;28;20047;-68
2022/10/08 04:04:15;;;;;;;7.38;3.50;;;;;;;;;;5081700;28;20040;-67
2022/10/08 04:06:40;;;;;;;6.47;3.00;;;;;;;;;;5088576;28;20036;-67
2022/10/08 04:09:05;;;;;;;8.65;3.50;;;;;;;;;;5083792;28;20039;-68
2022/10/08 04:11:31;;;;;;;8.93;3.30;;;;;;;;;;5082930;28;20139;-68
2022/10/08 04:13:56;;;;;;;5.68;3.15;;;;;;;;;;5084244;28;20070;-67
2022/10/08 04:16:21;;;;;;;11.40;3.45;;;;;;;;;;5081773;28;20108;-67
2022/10/08 04:18:47;;;;;;;11.00;3.35;;;;;;;;;;5084371;28;20052;-67
2022/10/08 04:21:16;;;;;;;9.02;3.22;;;;;;;;;;5084788;28;20494;-68
2022/10/08 04:23:42;;;;;;;9.52;2.90;;;;;;;;;;5087127;28;20081;-67
2022/10/08 04:26:09;;;;;;;6.57;2.95;;;;;;;;;;5084702;28;20491;-56
2022/10/08 04:28:39;;;;;;;7.90;3.30;;;;;;;;;;5081758;28;20048;-54
2022/10/08 04:31:07;;;;;;;6.07;3.17;;;;;;;;;;5083850;28;20328;-56
2022/10/08 04:33:34;;;;;;;5.18;2.78;;;;;;;;;;5082364;28;20089;-55
2022/10/08 04:36:00;;;;;;;7.82;2.67;;;;;;;;;;5079302;28;20035;-56
2022/10/08 04:38:26;;;;;;;5.80;3.00;;;;;;;;;;5083378;28;20057;-56
2022/10/08 04:41:05;;;;;;;7.68;2.70;;;;;;;;;;5079565;28;20044;-56
2022/10/08 04:43:31;;;;;;;8.77;3.03;;;;;;;;;;5080560;28;20079;-56
2022/10/08 04:45:57;;;;;;;5.90;2.95;;;;;;;;;;5081240;28;20517;-51
2022/10/08 04:48:22;;;;;;;5.78;3.13;;;;;;;;;;5086190;28;20020;-57
2022/10/08 04:50:52;;;;;;;6.60;2.50;;;;;;;;;;5081544;28;20055;-55
2022/10/08 04:53:18;;;;;;;10.18;3.55;;;;;;;;;;5080705;28;20089;-52
2022/10/08 04:55:43;;;;;;;7.20;2.53;;;;;;;;;;5084149;28;20040;-54
2022/10/08 04:58:08;;;;;;;4.15;2.70;;;;;;;;;;5081071;28;20419;-55
2022/10/08 05:00:34;;;;;;;6.25;2.50;;;;;;;;;;5081011;28;20032;-58
2022/10/08 05:03:00;;;;;;;7.80;2.97;;;;;;;;;;5084554;28;20020;-58
2022/10/08 05:05:25;;;;;;;7.72;2.60;;;;;;;;;;5087290;28;20071;-57
2022/10/08 05:07:53;;;;;;;4.40;2.28;;;;;;;;;;5083394;28;20051;-60
2022/10/08 05:10:18;;;;;;;7.82;2.50;;;;;;;;;;5082615;28;20675;-60
2022/10/08 05:12:43;;;;;;;6.20;2.60;;;;;;;;;;5084222;28;20530;-60
2022/10/08 05:15:09;;;;;;;3.88;2.13;;;;;;;;;;5085831;28;20036;-59
2022/10/08 05:17:34;;;;;;;6.97;2.58;;;;;;;;;;5084737;28;20040;-58
2022/10/08 05:20:00;;;;;;;10.90;2.60;;;;;;;;;;5085474;28;20529;-58
2022/10/08 05:22:25;;;;;;;8.20;2.53;;;;;;;;;;5084286;28;20157;-59
2022/10/08 05:24:51;;;;;;;3.97;2.30;;;;;;;;;;5086113;28;20051;-57
2022/10/08 05:27:16;;;;;;;5.32;2.25;;;;;;;;;;5080169;28;20085;-56
2022/10/08 05:29:41;;;;;;;6.00;2.38;;;;;;;;;;5080756;28;20072;-60
2022/10/08 05:32:07;;;;;;;9.13;2.80;;;;;;;;;;5081445;28;20135;-59
2022/10/08 05:34:32;;;;;;;4.45;2.28;;;;;;;;;;5082445;28;20997;-60
2022/10/08 05:36:57;;;;;;;7.45;2.95;;;;;;;;;;5081949;28;20036;-59
2022/10/08 05:39:23;;;;;;;7.80;2.58;;;;;;;;;;5082134;28;20039;-55
2022/10/08 05:41:48;;;;;;;6.10;2.85;;;;;;;;;;5081694;28;20517;-60
2022/10/08 05:44:13;;;;;;;9.40;2.88;;;;;;;;;;5080385;28;20036;-59
2022/10/08 05:46:39;;;;;;;5.28;2.65;;;;;;;;;;5081642;28;20502;-58
2022/10/08 05:49:07;;;;;;;5.72;2.40;;;;;;;;;;5080990;28;20047;-59
2022/10/08 05:51:33;;;;;;;9.63;2.75;;;;;;;;;;5085221;28;20392;-57
2022/10/08 05:53:59;;;;;;;5.38;2.22;;;;;;;;;;5084348;28;20031;-56
2022/10/08 05:56:26;;;;;;;4.75;2.40;;;;;;;;;;5085518;28;20482;-58
2022/10/08 05:58:53;;;;;;;10.75;3.00;;;;;;;;;;5077740;28;20452;-58
2022/10/08 06:01:23;;;;;;;8.00;2.97;;;;;;;;;;5084036;28;20048;-59
2022/10/08 06:03:55;;;;;;;8.43;2.38;;;;;;;;;;5080014;28;20052;-58
2022/10/08 06:06:21;;;;;;;6.15;2.58;;;;;;;;;;5081062;28;20024;-59
2022/10/08 06:08:52;;;;;;;9.13;2.33;;;;;;;;;;5077825;28;20043;-54
2022/10/08 06:11:17;;;;;;;8.70;2.50;;;;;;;;;;5081399;28;20052;-57
2022/10/08 06:13:43;;;;;;;6.88;2.47;;;;;;;;;;5079614;28;20059;-56
2022/10/08 06:16:10;;;;;;;10.18;3.53;;;;;;;;;;5080255;28;20074;-55
2022/10/08 06:18:39;;;;;;;6.53;3.00;;;;;;;;;;5079603;28;20035;-52
2022/10/08 06:21:11;;;;;;;9.18;3.08;;;;;;;;;;5081487;28;20039;-53
2022/10/08 06:23:38;;;;;;;6.70;2.65;;;;;;;;;;5076985;28;20043;-52
2022/10/08 06:26:08;;;;;;;7.75;2.78;;;;;;;;;;5082925;28;20094;-54
2022/10/08 06:28:35;;;;;;;5.68;2.60;;;;;;;;;;5076412;28;20076;-55
2022/10/08 06:31:02;;;;;;;8.15;3.00;;;;;;;;;;5077065;28;20554;-52
2022/10/08 06:33:28;;;;;;;12.65;3.20;;;;;;;;;;5080241;28;20387;-51
2022/10/08 06:35:53;;;;;;;8.10;2.92;;;;;;;;;;5080812;28;20442;-51
2022/10/08 06:38:19;;;;;;;5.97;2.72;;;;;;;;;;5076581;28;20056;-54
2022/10/08 06:40:45;;;;;;;10.20;2.80;;;;;;;;;;5081899;28;20043;-52
2022/10/08 06:43:18;;;;;;;5.88;2.28;;;;;;;;;;5079765;28;20469;-52
2022/10/08 06:45:45;;;;;;;19.58;3.47;;;;;;;;;;5079075;28;20036;-56
2022/10/08 06:48:12;;;;;;;8.95;3.10;;;;;;;;;;5079521;28;20032;-52
2022/10/08 06:50:38;;;;;;;6.68;2.50;;;;;;;;;;5082640;28;20040;-57
2022/10/08 06:53:05;;;;;;;14.57;2.85;;;;;;;;;;5079412;28;20151;-53
2022/10/08 06:55:32;;;;;;;9.18;2.67;;;;;;;;;;5084497;28;20052;-54
2022/10/08 06:57:57;;;;;;;8.15;2.72;;;;;;;;;;5083592;28;20131;-52
2022/10/08 07:00:23;;;;;;;8.35;2.78;;;;;;;;;;5089871;28;20359;-54
2022/10/08 07:02:48;;;;;;;7.55;2.85;;;;;;;;;;5080154;28;20040;-51
2022/10/08 07:05:14;;;;;;;7.72;2.97;;;;;;;;;;5088581;28;20097;-51
2022/10/08 07:07:39;;;;;;;8.55;2.70;;;;;;;;;;5083939;28;20052;-55
2022/10/08 07:10:05;;;;;;;8.63;2.85;;;;;;;;;;5085366;28;20402;-54
2022/10/08 07:12:31;;;;;;;10.57;3.42;;;;;;;;;;5085379;28;20032;-54
2022/10/08 07:14:57;;;;;;;11.70;2.80;;;;;;;;;;5084986;28;20048;-54
2022/10/08 07:17:25;;;;;;;12.25;3.53;;;;;;;;;;5088471;28;20040;-56
2022/10/08 07:19:51;;;;;;;11.93;3.17;;;;;;;;;;5089911;28;20450;-56
2022/10/08 07:22:17;;;;;;;8.25;2.95;;;;;;;;;;5083626;28;20051;-55
2022/10/08 07:24:42;;;;;;;7.38;2.83;;;;;;;;;;5087305;28;20032;-55
2022/10/08 07:27:07;;;;;;;10.73;3.33;;;;;;;;;;5088107;28;20036;-57
2022/10/08 07:29:33;;;;;;;6.00;2.80;;;;;;;;;;5086411;28;20055;-53
2022/10/08 07:31:58;;;;;;;8.75;3.08;;;;;;;;;;5086978;28;20167;-54
2022/10/08 07:34:23;;;;;;;7.13;2.47;;;;;;;;;;5088500;28;20491;-54
2022/10/08 07:36:49;;;;;;;10.25;2.55;;;;;;;;;;5086745;28;20116;-57
2022/10/08 07:39:17;;;;;;;12.02;2.40;;;;;;;;;;5081936;28;20044;-52
2022/10/08 07:41:43;;;;;;;7.18;2.53;;;;;;;;;;5081523;28;20044;-53
2022/10/08 07:44:10;;;;;;;7.20;2.20;;;;;;;;;;5079382;28;20067;-53
2022/10/08 07:46:36;;;;;;;8.23;2.35;;;;;;;;;;5081349;28;20114;-51
2022/10/08 07:49:03;;;;;;;5.95;2.40;;;;;;;;;;5081671;28;20055;-55
2022/10/08 07:51:31;;;;;;;8.57;2.22;;;;;;;;;;5080200;28;20493;-56
2022/10/08 07:53:58;;;;;;;6.85;1.85;;;;;;;;;;5079202;28;20090;-54
2022/10/08 07:56:23;;;;;;;11.35;2.22;;;;;;;;;;5081238;28;20097;-56
2022/10/08 07:58:49;;;;;;;15.23;4.07;;;;;;;;;;5077783;28;20418;-54
2022/10/08 08:01:19;;;;;;;10.27;2.40;;;;;;;;;;5074708;28;20400;-53
2022/10/08 08:03:44;;;;;;;5.35;1.85;;;;;;;;;;5079136;28;20017;-56
2022/10/08 08:06:13;;;;;;;6.57;1.88;;;;;;;;;;5082368;28;20050;-57
2022/10/08 08:08:41;;;;;;;6.18;1.80;;;;;;;;;;5077035;28;20525;-53
2022/10/08 08:11:08;;;;;;;6.68;2.00;;;;;;;;;;5085337;28;20048;-55
2022/10/08 08:13:35;;;;;;;8.38;1.80;;;;;;;;;;5080180;28;20192;-57
2022/10/08 08:16:05;;;;;;;10.98;2.80;;;;;;;;;;5078958;28;20056;-54
2022/10/08 08:18:33;;;;;;;7.90;2.03;;;;;;;;;;5080739;28;20055;-57
2022/10/08 08:21:00;;;;;;;8.93;2.30;;;;;;;;;;5077080;28;20040;-55
2022/10/08 08:23:35;;;;;;;6.30;1.75;;;;;;;;;;5079104;28;20556;-56
2022/10/08 08:26:05;;;;;;;7.22;1.80;;;;;;;;;;5078740;28;20048;-58
2022/10/08 08:28:31;;;;;;;10.85;2.47;;;;;;;;;;5076028;28;20047;-56
2022/10/08 08:31:33;;;;;;;7.20;2.13;;;;;;;;;;5077936;28;20044;-53
2022/10/08 08:34:10;;;;;;;10.63;1.80;;;;;;;;;;5073687;28;20414;-52
2022/10/08 08:36:42;;;;;;;4.97;1.63;;;;;;;;;;5080856;28;20039;-56
2022/10/08 08:39:13;;;;;;;5.28;1.88;;;;;;;;;;5075261;28;20039;-56
2022/10/08 08:42:07;;;;;;;5.53;1.58;;;;;;;;;;5073557;28;20041;-55
2022/10/08 08:44:46;;;;;;;6.53;2.08;;;;;;;;;;5066594;28;20078;-55
2022/10/08 08:47:21;;;;;;;8.68;1.98;;;;;;;;;;5081875;28;20517;-55
2022/10/08 08:49:51;;;;;;;7.43;1.80;;;;;;;;;;5078937;28;20440;-55
2022/10/08 08:52:23;;;;;;;11.95;2.00;;;;;;;;;;5078092;28;20082;-53
2022/10/08 08:54:49;;;;;;;6.85;1.67;;;;;;;;;;5075573;28;20049;-54
2022/10/08 08:57:21;;;;;;;8.90;1.63;;;;;;;;;;5076030;28;20068;-53
2022/10/08 08:59:51;;;;;;;9.15;2.28;;;;;;;;;;5078381;28;20040;-55
2022/10/08 09:02:26;;;;;;;9.00;2.08;;;;;;;;;;5080446;28;20419;-53
2022/10/08 09:04:56;;;;;;;10.05;1.88;;;;;;;;;;5079859;28;20086;-54
2022/10/08 09:07:25;;;;;;;9.27;1.75;;;;;;;;;;5078558;28;20048;-54
2022/10/08 09:09:52;;;;;;;6.65;1.90;;;;;;;;;;5073690;28;20040;-53
2022/10/08 09:12:20;;;;;;;12.05;1.98;;;;;;;;;;5078290;28;20620;-52
2022/10/08 09:14:51;;;;;;;6.70;1.80;;;;;;;;;;5080043;28;20102;-54
2022/10/08 09:17:19;;;;;;;6.97;1.73;;;;;;;;;;5073601;28;20174;-53
2022/10/08 09:19:47;;;;;;;7.90;1.70;;;;;;;;;;5078712;28;20051;-56
2022/10/08 09:22:21;;;;;;;11.00;2.30;;;;;;;;;;5076492;28;20475;-57
2022/10/08 09:24:58;;;;;;;6.22;1.65;;;;;;;;;;5073393;28;20059;-55
2022/10/08 09:27:23;;;;;;;5.88;1.60;;;;;;;;;;5076821;28;20040;-54
2022/10/08 09:29:49;;;;;;;7.43;1.45;;;;;;;;;;5071625;28;20074;-55
2022/10/08 09:32:17;;;;;;;9.48;2.08;;;;;;;;;;5070993;28;20054;-55
2022/10/08 09:34:44;;;;;;;6.18;1.40;;;;;;;;;;5073740;28;20114;-53
2022/10/08 09:37:24;;;;;;;6.88;1.58;;;;;;;;;;5077160;28;20063;-55
2022/10/08 09:40:11;;;;;;;5.97;1.58;;;;;;;;;;5073294;28;20487;-53
2022/10/08 09:42:36;;;;;;;6.80;1.45;;;;;;;;;;5073877;28;20060;-56
2022/10/08 09:45:04;;;;;;;4.50;1.60;;;;;;;;;;5079377;28;20650;-54
2022/10/08 09:47:32;;;;;;;9.30;1.58;;;;;;;;;;5077556;28;20043;-55
2022/10/08 09:50:00;;;;;;;5.40;1.67;;;;;;;;;;5072004;28;20416;-55
2022/10/08 09:52:27;;;;;;;7.05;1.70;;;;;;;;;;5076333;28;20463;-54
2022/10/08 09:55:02;;;;;;;11.82;1.40;;;;;;;;;;5073951;28;20036;-56
2022/10/08 09:57:29;;;;;;;4.80;1.27;;;;;;;;;;5072506;28;20036;-56
2022/10/08 10:00:01;;;;;;;5.05;1.20;;;;;;;;;;5072760;28;20043;-52
2022/10/08 10:02:37;;;;;;;5.60;1.30;;;;;;;;;;5074348;28;20056;-52
2022/10/08 10:05:16;;;;;;;5.95;1.33;;;;;;;;;;5075926;28;20425;-53
2022/10/08 10:07:44;;;;;;;3.83;1.05;;;;;;;;;;5072971;27;20051;-52
2022/10/08 10:10:33;;;;;;;4.93;1.08;;;;;;;;;;5080228;28;20487;-55
2022/10/08 10:13:23;;;;;;;5.72;1.20;;;;;;;;;;5074207;28;20051;-56
2022/10/08 10:15:56;;;;;;;3.05;1.00;;;;;;;;;;5074469;28;20443;-52
2022/10/08 10:18:33;;;;;;;7.22;1.73;;;;;;;;;;5073401;28;20035;-54
2022/10/08 10:21:04;;;;;;;9.95;1.58;;;;;;;;;;5076152;28;20044;-55
2022/10/08 10:23:40;;;;;;;3.67;0.82;;;;;;;;;;5079136;28;20406;-53
2022/10/08 10:26:34;;;;;;;3.97;0.80;;;;;;;;;;5075575;28;20049;-55
2022/10/08 10:29:07;;;;;;;2.97;1.00;;;;;;;;;;5077591;28;20055;-56
2022/10/08 10:31:35;;;;;;;4.43;0.95;;;;;;;;;;5079527;28;20048;-55
2022/10/08 10:34:16;;;;;;;6.15;1.48;;;;;;;;;;5075383;28;20082;-51
2022/10/08 10:36:48;;;;;;;3.63;1.42;;;;;;;;;;5072617;28;20037;-51
2022/10/08 10:39:35;;;;;;;3.42;0.90;;;;;;;;;;5079879;28;20497;-48
2022/10/08 10:42:09;;;;;;;5.75;1.20;;;;;;;;;;5080876;28;20127;-55
2022/10/08 10:44:51;;;;;;;3.00;1.00;;;;;;;;;;5074620;28;20103;-52
2022/10/08 10:47:20;;;;;;;7.22;1.20;;;;;;;;;;5076388;28;20058;-53
2022/10/08 10:49:45;;;;;;;6.93;1.30;;;;;;;;;;5078180;28;20176;-53
2022/10/08 10:52:40;;;;;;;3.58;1.10;;;;;;;;;;5079664;28;20083;-55
2022/10/08 10:55:17;;;;;;;3.75;1.25;;;;;;;;;;5073236;28;20135;-56
2022/10/08 10:58:00;;;;;;;3.17;1.08;;;;;;;;;;5074397;28;20028;-56
2022/10/08 11:00:31;;;;;;;3.10;1.10;;;;;;;;;;5078821;28;20042;-54
2022/10/08 11:03:09;;;;;;;5.25;1.33;;;;;;;;;;5075331;28;20074;-55
2022/10/08 11:05:36;;;;;;;4.45;1.50;;;;;;;;;;5072813;28;20127;-53
2022/10/08 11:08:16;;;;;;;2.72;1.17;;;;;;;;;;5078431;28;20037;-53
2022/10/08 11:11:03;;;;;;;4.43;1.25;;;;;;;;;;5076818;28;20078;-54
2022/10/08 11:13:32;;;;;;;5.00;1.25;;;;;;;;;;5075729;28;20043;-52
2022/10/08 11:16:09;;;;;;;3.63;1.45;;;;;;;;;;5071427;28;20086;-55
2022/10/08 11:18:54;;;;;;;3.28;0.93;;;;;;;;;;5075784;28;20035;-55
2022/10/08 11:21:40;;;;;;;5.40;1.15;;;;;;;;;;5079440;28;20024;-56
2022/10/08 11:24:21;;;;;;;4.63;1.40;;;;;;;;;;5077560;28;20062;-54
2022/10/08 11:27:01;;;;;;;4.78;1.38;;;;;;;;;;5070846;28;20573;-55
2022/10/08 11:29:41;;;;;;;5.15;1.50;;;;;;;;;;5075236;28;20053;-55
2022/10/08 11:32:17;;;;;;;6.15;2.40;;;;;;;;;;5075378;28;20064;-54
2022/10/08 11:34:59;;;;;;;5.18;1.27;;;;;;;;;;5074373;28;20132;-56
2022/10/08 11:37:53;;;;;;;2.97;0.98;;;;;;;;;;5077794;28;21530;-55
2022/10/08 11:40:31;;;;;;;4.68;1.70;;;;;;;;;;5076695;28;21223;-52
2022/10/08 11:43:30;;;;;;;3.65;1.38;;;;;;;;;;5078060;28;20087;-54
2022/10/08 11:46:17;;;;;;;4.25;1.27;;;;;;;;;;5077480;28;20044;-55
2022/10/08 11:48:42;;;;;;;5.32;1.38;;;;;;;;;;5076898;28;20028;-56
2022/10/08 11:51:20;;;;;;;7.20;1.40;;;;;;;;;;5083352;28;20036;-57
2022/10/08 11:54:01;;;;;;;3.72;1.17;;;;;;;;;;5084649;28;20082;-56
2022/10/08 11:56:27;;;;;;;4.63;1.35;;;;;;;;;;5081729;28;20140;-51
2022/10/08 11:58:56;;;;;;;4.43;1.83;;;;;;;;;;5080460;28;20040;-55
2022/10/08 12:01:22;;;;;;;4.40;1.48;;;;;;;;;;5078224;28;20047;-55
2022/10/08 12:04:18;;;;;;;5.45;1.27;;;;;;;;;;5075676;28;20489;-58
2022/10/08 12:06:45;;;;;;;4.13;1.20;;;;;;;;;;5076075;28;20471;-55
2022/10/08 12:09:22;;;;;;;4.97;1.30;;;;;;;;;;5074598;28;20023;-52
2022/10/08 12:11:50;;;;;;;6.18;1.77;;;;;;;;;;5076415;28;20048;-51
2022/10/08 12:14:15;;;;;;;4.40;1.25;;;;;;;;;;5074532;28;20056;-55
2022/10/08 12:16:47;;;;;;;6.75;1.45;;;;;;;;;;5077358;28;20076;-54
2022/10/08 12:19:34;;;;;;;4.53;1.20;;;;;;;;;;5084877;27;20166;-54
2022/10/08 12:22:00;;;;;;;6.53;1.40;;;;;;;;;;5076840;28;20490;-51
2022/10/08 12:24:38;;;;;;;2.55;1.30;;;;;;;;;;5079167;28;20443;-56
2022/10/08 12:27:15;;;;;;;3.58;1.15;;;;;;;;;;5074167;28;20173;-56
2022/10/08 12:30:12;;;;;;;6.85;1.10;;;;;;;;;;5074679;28;20506;-53
2022/10/08 12:32:38;;;;;;;4.50;1.25;;;;;;;;;;5072946;28;20074;-52
2022/10/08 12:35:04;;;;;;;4.88;1.20;;;;;;;;;;5083023;28;20056;-51
2022/10/08 12:37:57;;;;;;;3.10;1.10;;;;;;;;;;5076653;28;20738;-56
2022/10/08 12:40:32;;;;;;;;;;;;;;;;;;5081764;28;20059;-51
2022/10/08 12:43:22;;;;;;;4.30;1.10;;;;;;;;;;5074636;28;19932;-56
2022/10/08 12:45:59;;;;;;;5.35;1.40;;;;;;;;;;5078502;28;20124;-53
2022/10/08 12:48:32;;;;;;;6.10;1.00;;;;;;;;;;5074589;28;20032;-54
2022/10/08 12:51:34;;;;;;;6.60;1.35;;;;;;;;;;5077227;28;20057;-52
2022/10/08 12:54:01;;;;;;;3.92;0.90;;;;;;;;;;5077370;28;20231;-52
2022/10/08 12:56:28;;;;;;;3.45;1.25;;;;;;;;;;5081167;28;20082;-53
2022/10/08 12:58:57;;;;;;;6.35;1.15;;;;;;;;;;5074735;28;20048;-54
2022/10/08 13:01:25;;;;;;;3.83;1.23;;;;;;;;;;5076234;28;20040;-52
2022/10/08 13:04:28;;;;;;;4.40;1.10;;;;;;;;;;5081705;27;20039;-52
2022/10/08 13:06:54;;;;;;;4.80;1.27;;;;;;;;;;5078244;28;20441;-51
2022/10/08 13:09:25;;;;;;;6.82;1.48;;;;;;;;;;5080769;28;20530;-56
2022/10/08 13:11:51;;;;;;;4.25;0.90;;;;;;;;;;5080798;28;20193;-54
2022/10/08 13:14:28;;;;;;;4.68;1.10;;;;;;;;;;5075729;28;20075;-54
2022/10/08 13:16:54;;;;;;;6.57;1.40;;;;;;;;;;5074517;28;20054;-51
2022/10/08 13:19:29;;;;;;;5.30;1.20;;;;;;;;;;5081389;28;20048;-50
2022/10/08 13:22:06;;;;;;;6.05;1.25;;;;;;;;;;5074633;28;20040;-55
2022/10/08 13:24:40;;;;;;;3.75;1.02;;;;;;;;;;5079022;28;20338;-53
2022/10/08 13:27:27;;;;;;;5.97;1.30;;;;;;;;;;5080081;28;20071;-55
2022/10/08 13:29:54;;;;;;;3.70;1.02;;;;;;;;;;5077439;28;20287;-51
2022/10/08 13:32:24;;;;;;;3.67;1.30;;;;;;;;;;5075427;28;20135;-51
2022/10/08 13:34:56;;;;;;;4.50;1.38;;;;;;;;;;5075344;28;20044;-52
2022/10/08 13:37:21;;;;;;;3.85;1.15;;;;;;;;;;5074676;28;20048;-56
2022/10/08 13:39:52;;;;;;;5.88;1.30;;;;;;;;;;5073441;28;21413;-56
2022/10/08 13:42:20;;;;;;;5.15;1.33;;;;;;;;;;5076963;28;20271;-54
2022/10/08 13:44:46;;;;;;;2.70;0.90;;;;;;;;;;5079700;28;20082;-54
2022/10/08 13:47:16;;;;;;;3.83;1.00;;;;;;;;;;5079204;28;20503;-58
2022/10/08 13:49:42;;;;;;;3.20;0.80;;;;;;;;;;5076359;28;20080;-54
2022/10/08 13:52:15;;;;;;;5.22;0.98;;;;;;;;;;5070388;28;20040;-51
2022/10/08 13:54:42;;;;;;;5.78;1.27;;;;;;;;;;5076212;28;20056;-54
2022/10/08 13:57:07;;;;;;;4.15;1.55;;;;;;;;;;5071803;28;20718;-53
2022/10/08 13:59:33;;;;;;;4.57;1.02;;;;;;;;;;5079006;28;20044;-48
2022/10/08 14:01:58;;;;;;;2.72;0.98;;;;;;;;;;5074645;28;20048;-52
2022/10/08 14:04:23;;;;;;;2.50;0.93;;;;;;;;;;5076220;28;20124;-52
2022/10/08 14:06:53;;;;;;;4.45;1.00;;;;;;;;;;5082174;28;20514;-53
2022/10/08 14:09:21;;;;;;;3.67;1.08;;;;;;;;;;5075255;28;20063;-52
2022/10/08 14:11:53;;;;;;;5.82;1.17;;;;;;;;;;5075844;28;20393;-53
2022/10/08 14:14:19;;;;;;;4.97;1.15;;;;;;;;;;5072502;28;20506;-52
2022/10/08 14:16:44;;;;;;;4.18;1.10;;;;;;;;;;5079009;28;20158;-52
2022/10/08 14:19:10;;;;;;;2.60;1.00;;;;;;;;;;5077133;28;20194;-50
2022/10/08 14:21:38;;;;;;;4.55;1.27;;;;;;;;;;5060046;28;20363;-57
2022/10/08 14:24:03;;;;;;;6.07;1.05;;;;;;;;;;5075736;28;20040;-55
2022/10/08 14:26:29;;;;;;;3.42;1.20;;;;;;;;;;5075524;28;20100;-53
2022/10/08 14:28:56;;;;;;;4.05;1.08;;;;;;;;;;5068089;28;21976;-57
2022/10/08 14:31:21;;;;;;;5.70;1.20;;;;;;;;;;5068488;28;20437;-57
2022/10/08 14:33:47;;;;;;;5.00;1.35;;;;;;;;;;5072986;28;20059;-53
2022/10/08 14:36:16;;;;;;;6.82;1.45;;;;;;;;;;5076110;28;20142;-54
2022/10/08 14:38:42;;;;;;;2.60;0.90;;;;;;;;;;5072837;28;20055;-55
2022/10/08 14:41:08;;;;;;;3.05;1.05;;;;;;;;;;5074765;28;20045;-56
2022/10/08 14:43:33;;;;;;;4.05;0.90;;;;;;;;;;5073363;28;20044;-54
2022/10/08 14:45:58;;;;;;;3.92;1.02;;;;;;;;;;5080982;28;20067;-53
2022/10/08 14:48:24;;;;;;;2.45;0.60;;;;;;;;;;5075413;28;20039;-57
2022/10/08 14:50:49;;;;;;;3.22;1.08;;;;;;;;;;5075481;28;20044;-55
2022/10/08 14:53:15;;;;;;;6.60;1.45;;;;;;;;;;5076951;28;20087;-55
2022/10/08 14:55:40;;;;;;;4.20;1.10;;;;;;;;;;5078159;28;20067;-52
2022/10/08 14:58:06;;;;;;;4.72;1.33;;;;;;;;;;5073023;28;20053;-56
2022/10/08 15:00:31;;;;;;;5.82;1.40;;;;;;;;;;5072310;28;20489;-56